Time;durP1;ratioP1;P1;durP2;ratioP2;P2;SDS_P1;SDS_P2;PMS_P1;PMS_P2;Temp;Humidity;BMP_temperature;BMP_pressure;BME280_temperature;BME280_humidity;BME280_pressure;Samples;Min_cycle;Max_cycle;Signal;HPM_P1;HPM_P2
2021/10/08 00:00:40;;;;;;;235.27;218.87;;;8.60;99.90;;;;;;5037454;28;20251;-83
2021/10/08 00:03:06;;;;;;;283.37;265.13;;;8.60;99.90;;;;;;5019975;28;20665;-83
2021/10/08 00:05:32;;;;;;;264.53;247.63;;;8.50;99.90;;;;;;5038486;28;20972;-82
2021/10/08 00:07:59;;;;;;;250.70;234.10;;;8.50;99.90;;;;;;5037002;28;20672;-83
2021/10/08 00:10:25;;;;;;;251.60;235.00;;;8.40;99.90;;;;;;5037184;28;20244;-83
2021/10/08 00:12:50;;;;;;;290.07;271.93;;;8.40;99.90;;;;;;5037981;28;20195;-82
2021/10/08 00:15:16;;;;;;;262.63;245.07;;;8.40;99.90;;;;;;5037571;28;20161;-82
2021/10/08 00:17:42;;;;;;;245.70;228.55;;;8.40;99.90;;;;;;5037844;28;20205;-83
2021/10/08 00:20:08;;;;;;;271.40;254.50;;;8.40;99.90;;;;;;5037784;28;20534;-82
2021/10/08 00:22:34;;;;;;;254.98;237.93;;;8.40;99.90;;;;;;5037768;28;20161;-82
2021/10/08 00:25:00;;;;;;;279.10;261.90;;;8.40;99.90;;;;;;5038109;28;20586;-83
2021/10/08 00:27:26;;;;;;;260.10;243.77;;;8.30;99.90;;;;;;5036834;28;20527;-83
2021/10/08 00:29:51;;;;;;;248.33;232.20;;;8.30;99.90;;;;;;5037723;28;20164;-82
2021/10/08 00:32:17;;;;;;;271.67;254.60;;;8.20;99.90;;;;;;5037588;28;20579;-81
2021/10/08 00:34:43;;;;;;;248.20;231.63;;;8.20;99.90;;;;;;5037401;28;20161;-83
2021/10/08 00:37:08;;;;;;;292.37;274.80;;;8.20;99.90;;;;;;5037789;28;20255;-82
2021/10/08 00:39:34;;;;;;;266.67;250.13;;;8.20;99.90;;;;;;5037858;28;20165;-83
2021/10/08 00:42:01;;;;;;;225.10;209.40;;;8.20;99.90;;;;;;5037261;28;20169;-83
2021/10/08 00:44:29;;;;;;;260.50;244.00;;;8.10;99.90;;;;;;5037612;28;20171;-83
2021/10/08 00:46:55;;;;;;;264.20;247.30;;;8.10;99.90;;;;;;5037487;28;20228;-83
2021/10/08 00:49:21;;;;;;;280.90;263.17;;;8.10;99.90;;;;;;5037577;28;20628;-83
2021/10/08 00:51:47;;;;;;;259.80;243.37;;;8.00;99.90;;;;;;5037131;28;20408;-83
2021/10/08 00:54:12;;;;;;;237.10;220.90;;;8.00;99.90;;;;;;5037236;28;20161;-82
2021/10/08 00:56:40;;;;;;;253.50;236.53;;;8.00;99.90;;;;;;5036133;28;20165;-82
2021/10/08 00:59:06;;;;;;;267.15;250.48;;;8.00;99.90;;;;;;5037259;28;20162;-83
2021/10/08 01:01:34;;;;;;;234.30;217.97;;;8.00;99.90;;;;;;5125388;22;20184;-79
2021/10/08 01:04:06;;;;;;;235.80;219.63;;;8.00;99.90;;;;;;5056802;28;20192;-79
2021/10/08 01:06:38;;;;;;;241.63;225.18;;;8.00;99.90;;;;;;5038189;28;20521;-78
2021/10/08 01:09:08;;;;;;;227.35;211.60;;;8.00;99.90;;;;;;5036670;28;20227;-80
2021/10/08 01:11:44;;;;;;;222.75;206.35;;;7.90;99.90;;;;;;5036697;28;20216;-79
2021/10/08 01:14:09;;;;;;;231.65;216.10;;;7.90;99.90;;;;;;5036419;28;20141;-78
2021/10/08 01:16:38;;;;;;;231.03;215.60;;;7.90;99.90;;;;;;5019243;28;20535;-79
2021/10/08 01:19:12;;;;;;;238.77;222.40;;;7.90;99.90;;;;;;5035352;28;20169;-80
2021/10/08 01:21:38;;;;;;;224.52;209.02;;;7.80;99.90;;;;;;5035325;28;20255;-79
2021/10/08 01:24:16;;;;;;;217.47;201.87;;;7.80;99.90;;;;;;5037150;28;20652;-80
2021/10/08 01:26:44;;;;;;;223.35;208.07;;;7.80;99.90;;;;;;5036565;28;20151;-79
2021/10/08 01:29:14;;;;;;;233.80;218.32;;;7.70;99.90;;;;;;5036352;28;20215;-79
2021/10/08 01:31:39;;;;;;;264.80;248.18;;;7.70;99.90;;;;;;5018152;28;20181;-79
2021/10/08 01:34:18;;;;;;;247.17;231.00;;;7.70;99.90;;;;;;5036633;28;20165;-79
2021/10/08 01:36:43;;;;;;;236.70;220.90;;;7.60;99.90;;;;;;5036425;28;20225;-79
2021/10/08 01:39:12;;;;;;;233.97;218.40;;;7.60;99.90;;;;;;5032916;28;20204;-79
2021/10/08 01:41:40;;;;;;;228.27;212.25;;;7.60;99.90;;;;;;5036265;28;20177;-78
2021/10/08 01:44:08;;;;;;;252.45;236.15;;;7.60;99.90;;;;;;5036148;28;20165;-79
2021/10/08 01:46:34;;;;;;;249.52;233.48;;;7.60;99.90;;;;;;5036235;28;20301;-79
2021/10/08 01:49:00;;;;;;;209.20;194.57;;;7.60;99.90;;;;;;5036251;28;20192;-78
2021/10/08 01:51:26;;;;;;;278.00;261.30;;;7.60;99.90;;;;;;5035981;28;20737;-79
2021/10/08 01:53:54;;;;;;;253.90;237.77;;;7.50;99.90;;;;;;5035570;28;20446;-78
2021/10/08 01:56:26;;;;;;;222.25;207.23;;;7.50;99.90;;;;;;5036319;28;20477;-78
2021/10/08 01:58:52;;;;;;;253.85;237.48;;;7.50;99.90;;;;;;5035751;28;20274;-78
2021/10/08 02:01:18;;;;;;;254.00;238.03;;;7.50;99.90;;;;;;5018686;28;20181;-79
2021/10/08 02:03:46;;;;;;;238.30;221.63;;;7.50;99.90;;;;;;5035797;28;20235;-78
2021/10/08 02:06:15;;;;;;;224.90;209.50;;;7.50;99.90;;;;;;5036038;28;20168;-79
2021/10/08 02:08:46;;;;;;;243.63;226.98;;;7.40;99.90;;;;;;5034435;28;20197;-79
2021/10/08 02:11:15;;;;;;;222.07;206.85;;;7.40;99.90;;;;;;5018188;28;20165;-78
2021/10/08 02:13:40;;;;;;;251.20;234.65;;;7.40;99.90;;;;;;5034487;28;20165;-79
2021/10/08 02:16:11;;;;;;;245.93;230.40;;;7.40;99.90;;;;;;5017465;28;20591;-79
2021/10/08 02:18:39;;;;;;;220.18;204.98;;;7.30;99.90;;;;;;5035466;28;20208;-79
2021/10/08 02:21:13;;;;;;;235.68;220.13;;;7.30;99.90;;;;;;5017604;28;20169;-79
2021/10/08 02:23:41;;;;;;;256.30;240.18;;;7.30;99.90;;;;;;5035356;28;20153;-78
2021/10/08 02:26:10;;;;;;;236.73;221.25;;;7.30;99.90;;;;;;5018158;28;20580;-79
2021/10/08 02:28:38;;;;;;;262.45;246.25;;;7.30;99.90;;;;;;5035399;28;20201;-79
2021/10/08 02:31:07;;;;;;;215.60;200.45;;;7.30;99.90;;;;;;5035683;28;20171;-79
2021/10/08 02:33:38;;;;;;;223.68;208.52;;;7.30;99.90;;;;;;5035615;28;20165;-78
2021/10/08 02:36:08;;;;;;;255.75;239.15;;;7.20;99.90;;;;;;5034152;28;20164;-79
2021/10/08 02:38:41;;;;;;;224.18;208.77;;;7.20;99.90;;;;;;5035529;28;20185;-79
2021/10/08 02:41:28;;;;;;;247.20;230.82;;;7.20;99.90;;;;;;5035730;28;20149;-78
2021/10/08 02:43:56;;;;;;;217.68;202.88;;;7.10;99.90;;;;;;5035891;28;20168;-79
2021/10/08 02:46:21;;;;;;;241.52;225.40;;;7.20;99.90;;;;;;5036114;28;20231;-80
2021/10/08 02:49:01;;;;;;;232.10;216.70;;;7.10;99.90;;;;;;5035558;28;20205;-79
2021/10/08 02:51:28;;;;;;;259.85;243.40;;;7.10;99.90;;;;;;5035728;28;20536;-79
2021/10/08 02:53:53;;;;;;;235.15;218.85;;;7.10;99.90;;;;;;5017883;28;20192;-79
2021/10/08 02:56:21;;;;;;;253.03;237.30;;;7.10;99.90;;;;;;5036289;28;20162;-79
2021/10/08 02:58:47;;;;;;;240.02;224.68;;;7.10;99.90;;;;;;5035191;28;20200;-79
2021/10/08 03:01:15;;;;;;;250.53;234.47;;;7.10;99.90;;;;;;5036376;28;20169;-79
2021/10/08 03:03:41;;;;;;;252.65;236.23;;;7.10;99.90;;;;;;5018461;28;20199;-79
2021/10/08 03:06:09;;;;;;;269.80;253.50;;;7.00;99.90;;;;;;5039133;28;20649;-79
2021/10/08 03:08:38;;;;;;;251.95;236.20;;;7.00;99.90;;;;;;5020962;28;20193;-79
2021/10/08 03:11:06;;;;;;;269.55;253.25;;;7.00;99.90;;;;;;5039180;28;20157;-78
2021/10/08 03:13:38;;;;;;;273.75;257.10;;;7.00;99.90;;;;;;5039789;28;20157;-78
2021/10/08 03:16:06;;;;;;;257.35;240.57;;;7.00;99.90;;;;;;5039269;28;20576;-78
2021/10/08 03:18:39;;;;;;;234.55;218.55;;;6.90;99.90;;;;;;5038930;28;20215;-78
2021/10/08 03:21:13;;;;;;;244.75;228.93;;;6.90;99.90;;;;;;5038852;28;20158;-79
2021/10/08 03:23:39;;;;;;;239.43;223.95;;;6.90;99.90;;;;;;5038674;28;20157;-78
2021/10/08 03:26:05;;;;;;;258.63;242.37;;;6.90;99.90;;;;;;5038602;28;20214;-79
2021/10/08 03:28:46;;;;;;;254.10;238.20;;;6.90;99.90;;;;;;5038508;28;20197;-79
2021/10/08 03:31:13;;;;;;;281.10;263.98;;;6.80;99.90;;;;;;5037723;28;20407;-78
2021/10/08 03:33:39;;;;;;;260.98;244.60;;;6.80;99.90;;;;;;5020834;28;20251;-80
2021/10/08 03:36:06;;;;;;;252.87;236.57;;;6.80;99.90;;;;;;5020827;28;20219;-79
2021/10/08 03:38:33;;;;;;;273.25;256.52;;;6.80;99.90;;;;;;5038650;28;20432;-79
2021/10/08 03:41:15;;;;;;;248.10;232.05;;;6.80;99.90;;;;;;5038948;28;20165;-79
2021/10/08 03:43:41;;;;;;;262.10;245.52;;;6.80;99.90;;;;;;5038286;28;20157;-79
2021/10/08 03:46:09;;;;;;;255.60;239.43;;;6.80;99.90;;;;;;5020528;28;20307;-79
2021/10/08 03:49:00;;;;;;;258.90;242.70;;;6.80;99.90;;;;;;5020214;28;20282;-79
2021/10/08 03:51:23;;;;;;;270.95;254.55;;;6.80;99.90;;;;;;5037642;28;20250;-78
2021/10/08 03:53:49;;;;;;;254.00;237.53;;;6.80;99.90;;;;;;5037902;28;20189;-78
2021/10/08 03:56:15;;;;;;;289.97;271.70;;;6.80;99.90;;;;;;5037511;28;20165;-78
2021/10/08 03:58:40;;;;;;;261.97;245.63;;;6.70;99.90;;;;;;5037404;28;20189;-78
2021/10/08 04:01:06;;;;;;;253.83;237.77;;;6.70;99.90;;;;;;5038206;28;20173;-78
2021/10/08 04:03:34;;;;;;;254.37;238.17;;;6.70;99.90;;;;;;5037249;28;20204;-79
2021/10/08 04:06:00;;;;;;;243.15;227.38;;;6.70;99.90;;;;;;5037466;28;20169;-78
2021/10/08 04:08:25;;;;;;;235.60;220.03;;;6.70;99.90;;;;;;5019808;28;20750;-78
2021/10/08 04:10:51;;;;;;;267.73;250.97;;;6.70;99.90;;;;;;5019716;28;20192;-78
2021/10/08 04:13:16;;;;;;;227.30;211.97;;;6.70;99.90;;;;;;5037622;28;20600;-77
2021/10/08 04:15:42;;;;;;;235.10;219.77;;;6.70;99.90;;;;;;5019755;28;20308;-77
2021/10/08 04:18:11;;;;;;;235.23;219.57;;;6.60;99.90;;;;;;5037044;28;20196;-77
2021/10/08 04:20:37;;;;;;;256.67;239.90;;;6.60;99.90;;;;;;5036952;28;20174;-78
2021/10/08 04:23:03;;;;;;;256.95;240.75;;;6.60;99.90;;;;;;5036993;28;20169;-78
2021/10/08 04:25:29;;;;;;;251.85;235.77;;;6.60;99.90;;;;;;5019256;28;20204;-78
2021/10/08 04:27:55;;;;;;;234.77;218.85;;;6.60;99.90;;;;;;5037583;28;20207;-78
2021/10/08 04:30:28;;;;;;;246.03;230.07;;;6.50;99.90;;;;;;5038202;28;20162;-78
2021/10/08 04:32:53;;;;;;;251.32;235.30;;;6.50;99.90;;;;;;5019498;28;20533;-78
2021/10/08 04:35:19;;;;;;;246.53;230.40;;;6.60;99.90;;;;;;5019633;28;20165;-78
2021/10/08 04:37:45;;;;;;;233.73;218.50;;;6.60;99.90;;;;;;5037321;28;20177;-79
2021/10/08 04:40:12;;;;;;;276.70;259.80;;;6.50;99.90;;;;;;5037421;28;20168;-78
2021/10/08 04:42:37;;;;;;;258.20;242.18;;;6.50;99.90;;;;;;5036092;28;20660;-78
2021/10/08 04:45:04;;;;;;;236.43;221.13;;;6.50;99.90;;;;;;5019254;28;20251;-79
2021/10/08 04:47:30;;;;;;;243.55;227.85;;;6.50;99.90;;;;;;5037397;28;20259;-78
2021/10/08 04:49:58;;;;;;;232.43;216.77;;;6.50;99.90;;;;;;5036743;28;20193;-78
2021/10/08 04:52:24;;;;;;;231.70;215.93;;;6.50;99.90;;;;;;5019140;28;20169;-78
2021/10/08 04:54:50;;;;;;;215.20;200.30;;;6.50;99.90;;;;;;5036923;28;20196;-78
2021/10/08 04:57:17;;;;;;;240.97;225.43;;;6.50;99.90;;;;;;5036533;28;20276;-79
2021/10/08 04:59:46;;;;;;;253.98;237.43;;;6.50;99.90;;;;;;5035296;28;20188;-78
2021/10/08 05:02:11;;;;;;;240.07;224.52;;;6.50;99.90;;;;;;5018709;28;20603;-78
2021/10/08 05:04:37;;;;;;;250.63;234.27;;;6.50;99.90;;;;;;5019162;28;20216;-78
2021/10/08 05:07:03;;;;;;;248.43;232.17;;;6.50;99.90;;;;;;5036512;28;20185;-78
2021/10/08 05:09:28;;;;;;;260.30;243.93;;;6.50;99.90;;;;;;5037185;28;20446;-78
2021/10/08 05:11:54;;;;;;;261.20;244.87;;;6.60;99.90;;;;;;5036778;28;20252;-79
2021/10/08 05:14:22;;;;;;;255.33;238.83;;;6.60;99.90;;;;;;5036987;28;20197;-78
2021/10/08 05:16:48;;;;;;;274.25;257.27;;;6.70;99.90;;;;;;5036791;28;20252;-79
2021/10/08 05:19:14;;;;;;;353.23;333.23;;;6.70;99.90;;;;;;5036089;28;20231;-77
2021/10/08 05:21:39;;;;;;;353.75;333.65;;;6.70;99.90;;;;;;5016800;28;20170;-78
2021/10/08 05:24:06;;;;;;;351.30;331.30;;;6.70;99.90;;;;;;5036009;28;20655;-78
2021/10/08 05:26:33;;;;;;;371.98;351.42;;;6.80;99.90;;;;;;5018107;28;20165;-80
2021/10/08 05:28:58;;;;;;;387.95;366.52;;;6.80;99.90;;;;;;5018251;28;20204;-79
2021/10/08 05:31:24;;;;;;;386.63;364.97;;;6.80;99.90;;;;;;5036533;28;20161;-79
2021/10/08 05:33:49;;;;;;;349.23;329.07;;;6.80;99.90;;;;;;5037003;28;20506;-79
2021/10/08 05:36:15;;;;;;;307.37;289.40;;;6.80;99.90;;;;;;5037044;28;20244;-79
2021/10/08 05:38:41;;;;;;;312.03;293.13;;;6.80;99.90;;;;;;5036268;28;20252;-79
2021/10/08 05:41:06;;;;;;;302.07;284.03;;;6.80;99.90;;;;;;5036932;28;20176;-79
2021/10/08 05:43:32;;;;;;;345.87;326.27;;;6.80;99.90;;;;;;5037262;28;20169;-80
2021/10/08 05:45:58;;;;;;;311.40;292.97;;;6.90;99.90;;;;;;5037023;28;20165;-81
2021/10/08 05:48:23;;;;;;;323.53;304.93;;;6.80;99.90;;;;;;5018519;28;20189;-79
2021/10/08 05:50:49;;;;;;;389.80;367.97;;;6.80;99.90;;;;;;5036608;28;20169;-79
2021/10/08 05:53:18;;;;;;;323.17;304.60;;;6.80;99.90;;;;;;5036830;28;20224;-81
2021/10/08 05:55:43;;;;;;;305.02;287.05;;;6.70;99.90;;;;;;5019496;28;20698;-80
2021/10/08 05:58:09;;;;;;;268.47;251.47;;;6.70;99.90;;;;;;5017246;28;20193;-78
2021/10/08 06:00:37;;;;;;;314.53;296.03;;;6.70;99.90;;;;;;5017855;28;20176;-77
2021/10/08 06:03:03;;;;;;;358.58;338.13;;;6.70;99.90;;;;;;5033839;28;20234;-78
2021/10/08 06:05:33;;;;;;;326.20;306.98;;;6.70;99.90;;;;;;5034990;28;20157;-79
2021/10/08 06:07:59;;;;;;;308.40;290.27;;;6.80;99.90;;;;;;5036027;28;20200;-79
2021/10/08 06:10:24;;;;;;;277.27;259.97;;;6.70;99.90;;;;;;5036359;28;20173;-79
2021/10/08 06:12:50;;;;;;;342.70;323.13;;;6.60;99.90;;;;;;5036607;28;20227;-79
2021/10/08 06:15:16;;;;;;;276.80;259.17;;;6.60;99.90;;;;;;5036887;28;20173;-79
2021/10/08 06:17:41;;;;;;;292.30;274.90;;;6.60;99.90;;;;;;5036659;28;20427;-79
2021/10/08 06:20:08;;;;;;;341.10;321.53;;;6.60;99.90;;;;;;5035330;28;20177;-81
2021/10/08 06:22:36;;;;;;;271.52;254.45;;;6.60;99.90;;;;;;5036982;28;20193;-82
2021/10/08 06:25:04;;;;;;;344.25;324.23;;;6.60;99.90;;;;;;5036426;28;20528;-81
2021/10/08 06:27:33;;;;;;;282.75;265.42;;;6.70;99.90;;;;;;5036842;28;20209;-81
2021/10/08 06:29:59;;;;;;;320.25;301.70;;;6.70;99.90;;;;;;5036821;28;20165;-81
2021/10/08 06:32:27;;;;;;;335.90;316.50;;;6.70;99.90;;;;;;5036173;28;20149;-81
2021/10/08 06:34:52;;;;;;;335.73;316.35;;;6.80;99.90;;;;;;5035969;28;20169;-81
2021/10/08 06:37:19;;;;;;;321.37;302.30;;;6.80;99.90;;;;;;5018205;28;20192;-81
2021/10/08 06:39:45;;;;;;;361.38;340.60;;;6.90;99.90;;;;;;5038418;28;20556;-81
2021/10/08 06:42:10;;;;;;;367.80;346.87;;;7.00;99.90;;;;;;5040355;28;20161;-80
2021/10/08 06:44:36;;;;;;;338.80;319.03;;;7.00;99.90;;;;;;5041016;28;20240;-81
2021/10/08 06:47:02;;;;;;;368.23;347.27;;;7.10;99.90;;;;;;5040146;28;20235;-81
2021/10/08 06:49:28;;;;;;;346.80;326.93;;;7.10;99.90;;;;;;5039973;28;20204;-81
2021/10/08 06:51:53;;;;;;;366.13;345.77;;;7.20;99.90;;;;;;5039066;28;20407;-81
2021/10/08 06:54:19;;;;;;;360.47;340.10;;;7.30;99.90;;;;;;5040240;28;20172;-81
2021/10/08 06:56:45;;;;;;;422.07;399.17;;;7.30;99.90;;;;;;5039724;28;20215;-81
2021/10/08 06:59:10;;;;;;;387.90;366.87;;;7.40;99.90;;;;;;5039583;28;20197;-80
2021/10/08 07:04:04;;;;;;;366.60;345.65;;;7.60;99.90;;;;;;5038532;28;20193;-82
2021/10/08 07:06:30;;;;;;;400.33;378.17;;;7.70;99.90;;;;;;5039728;28;20165;-82
2021/10/08 07:08:56;;;;;;;411.03;388.57;;;7.80;99.90;;;;;;5058080;28;20327;-81
2021/10/08 07:11:22;;;;;;;435.10;411.55;;;7.90;99.90;;;;;;5059393;28;20164;-82
2021/10/08 07:13:50;;;;;;;432.07;409.07;;;8.00;99.90;;;;;;5059556;28;20172;-82
2021/10/08 07:16:16;;;;;;;380.80;359.10;;;8.10;99.90;;;;;;5059019;28;20243;-82
2021/10/08 07:18:49;;;;;;;439.83;415.37;;;8.20;99.90;;;;;;5058780;28;20216;-81
2021/10/08 07:21:15;;;;;;;425.27;401.63;;;8.20;99.90;;;;;;5059557;28;20384;-82
2021/10/08 07:23:45;;;;;;;433.67;410.47;;;8.30;99.90;;;;;;5058407;28;20219;-81
2021/10/08 07:26:11;;;;;;;386.40;364.30;;;8.40;99.90;;;;;;5057893;28;20148;-82
2021/10/08 07:28:38;;;;;;;434.92;411.20;;;8.50;99.90;;;;;;5058530;28;20199;-82
2021/10/08 07:31:08;;;;;;;391.25;369.17;;;8.50;99.90;;;;;;5058282;28;20171;-82
2021/10/08 07:33:34;;;;;;;398.45;374.95;;;8.60;99.90;;;;;;5040121;28;20176;-82
2021/10/08 07:36:01;;;;;;;426.60;403.08;;;8.60;99.90;;;;;;5060768;28;20180;-82
2021/10/08 07:38:27;;;;;;;382.98;361.10;;;8.60;99.90;;;;;;5060594;28;20192;-83
2021/10/08 07:40:53;;;;;;;377.65;356.42;;;8.70;99.90;;;;;;5059732;28;20168;-82
2021/10/08 07:43:19;;;;;;;416.48;393.60;;;8.80;99.90;;;;;;5059787;28;20632;-82
2021/10/08 07:45:44;;;;;;;374.63;353.23;;;8.80;99.90;;;;;;5059475;28;20161;-82
2021/10/08 07:48:10;;;;;;;388.20;366.50;;;8.90;99.90;;;;;;5059100;28;20197;-82
2021/10/08 07:50:36;;;;;;;384.17;362.43;;;8.80;99.90;;;;;;5058034;28;20170;-83
2021/10/08 07:53:01;;;;;;;404.77;381.73;;;8.90;99.90;;;;;;5059497;28;20472;-82
2021/10/08 07:55:27;;;;;;;357.73;336.80;;;8.90;99.90;;;;;;5041878;28;20181;-82
2021/10/08 07:57:54;;;;;;;323.25;304.13;;;9.00;99.90;;;;;;5058633;28;20263;-82
2021/10/08 08:00:19;;;;;;;360.33;339.58;;;9.00;99.90;;;;;;5058143;28;20161;-82
2021/10/08 08:02:45;;;;;;;350.30;330.30;;;9.10;99.90;;;;;;5059651;28;20195;-82
2021/10/08 08:05:11;;;;;;;315.60;296.97;;;9.10;99.90;;;;;;5061410;28;20172;-82
2021/10/08 08:07:37;;;;;;;326.90;307.07;;;9.20;99.90;;;;;;5060393;28;20755;-82
2021/10/08 08:10:04;;;;;;;301.97;283.67;;;9.20;99.90;;;;;;5058916;28;20403;-83
2021/10/08 08:12:29;;;;;;;336.67;317.15;;;9.30;99.90;;;;;;5059249;28;20179;-82
2021/10/08 08:14:55;;;;;;;330.30;311.03;;;9.40;99.90;;;;;;5058774;28;20161;-82
2021/10/08 08:17:21;;;;;;;307.20;287.67;;;9.40;99.90;;;;;;5059310;28;20234;-82
2021/10/08 08:19:47;;;;;;;281.70;262.37;;;9.50;99.90;;;;;;5059367;28;20196;-82
2021/10/08 08:22:12;;;;;;;286.25;268.35;;;9.50;99.90;;;;;;5040670;28;20643;-82
2021/10/08 08:24:38;;;;;;;249.50;233.10;;;9.50;99.90;;;;;;5040067;28;20176;-82
2021/10/08 08:27:04;;;;;;;269.60;251.83;;;9.60;99.90;;;;;;5058978;28;20184;-83
2021/10/08 08:29:30;;;;;;;285.07;267.47;;;9.60;99.90;;;;;;5058436;28;20407;-82
2021/10/08 08:31:56;;;;;;;278.30;260.40;;;9.70;99.90;;;;;;5057628;28;20213;-82
2021/10/08 08:34:23;;;;;;;270.47;252.47;;;9.60;99.90;;;;;;5039923;28;20230;-82
2021/10/08 08:36:49;;;;;;;251.75;235.10;;;9.70;99.90;;;;;;5041002;28;20442;-82
2021/10/08 08:39:15;;;;;;;248.85;232.23;;;9.80;99.90;;;;;;5058285;28;20188;-82
2021/10/08 08:41:41;;;;;;;255.13;238.13;;;9.80;99.90;;;;;;5058605;28;20191;-82
2021/10/08 08:44:07;;;;;;;281.17;262.58;;;9.90;99.90;;;;;;5040730;28;20168;-82
2021/10/08 08:46:34;;;;;;;266.17;248.00;;;9.90;99.90;;;;;;5058706;28;20152;-82
2021/10/08 08:49:01;;;;;;;298.17;278.98;;;10.00;99.90;;;;;;5057784;28;20477;-82
2021/10/08 08:51:27;;;;;;;261.45;244.15;;;10.10;99.90;;;;;;5057517;28;20517;-82
2021/10/08 08:53:57;;;;;;;264.80;246.98;;;10.10;99.90;;;;;;5057150;28;20175;-82
2021/10/08 08:56:24;;;;;;;257.10;239.80;;;10.20;99.90;;;;;;5057531;28;20572;-82
2021/10/08 08:59:19;;;;;;;279.05;260.95;;;10.30;99.90;;;;;;5057844;28;20188;-82
2021/10/08 09:02:02;;;;;;;249.40;232.68;;;10.40;99.90;;;;;;5034720;28;20235;-82
2021/10/08 09:04:30;;;;;;;268.50;251.23;;;10.50;99.90;;;;;;5058359;28;20240;-82
2021/10/08 09:06:56;;;;;;;277.80;259.50;;;10.50;99.90;;;;;;5056677;28;20651;-82
2021/10/08 09:09:23;;;;;;;281.05;263.20;;;10.50;99.90;;;;;;5039301;28;20177;-82
2021/10/08 09:11:53;;;;;;;282.33;264.35;;;10.60;99.90;;;;;;5056612;28;20165;-82
2021/10/08 09:14:26;;;;;;;264.02;246.40;;;10.70;99.90;;;;;;5057674;28;20169;-82
2021/10/08 09:17:15;;;;;;;301.05;282.25;;;10.80;99.90;;;;;;5057697;28;20539;-82
2021/10/08 09:19:50;;;;;;;246.63;229.65;;;10.90;99.90;;;;;;5056790;28;20184;-81
2021/10/08 09:22:40;;;;;;;246.00;229.27;;;11.00;99.90;;;;;;5057894;28;20167;-82
2021/10/08 09:25:30;;;;;;;248.50;232.10;;;11.00;99.90;;;;;;5055434;28;20183;-82
2021/10/08 09:28:03;;;;;;;233.50;216.65;;;11.20;99.90;;;;;;5060372;28;20180;-83
2021/10/08 09:30:40;;;;;;;246.10;228.95;;;11.30;99.90;;;;;;5059762;28;20149;-83
2021/10/08 09:33:12;;;;;;;216.55;201.10;;;11.40;99.90;;;;;;5058725;28;20148;-82
2021/10/08 09:35:39;;;;;;;235.40;218.75;;;11.50;99.90;;;;;;5057939;28;20176;-82
2021/10/08 09:38:08;;;;;;;266.13;249.18;;;11.70;99.90;;;;;;5057412;28;20189;-82
2021/10/08 09:40:41;;;;;;;260.80;243.95;;;11.90;99.90;;;;;;5056668;28;20184;-82
2021/10/08 09:43:13;;;;;;;277.08;259.73;;;12.00;99.90;;;;;;5040048;28;20599;-82
2021/10/08 09:45:54;;;;;;;279.35;261.73;;;12.20;99.90;;;;;;5040032;28;20565;-82
2021/10/08 09:48:23;;;;;;;335.10;315.52;;;12.40;99.90;;;;;;5039287;28;20242;-82
2021/10/08 09:51:02;;;;;;;350.52;330.08;;;12.70;99.90;;;;;;5038807;28;20172;-82
2021/10/08 09:53:28;;;;;;;272.27;254.50;;;12.90;99.90;;;;;;5038579;28;20278;-82
2021/10/08 09:55:54;;;;;;;222.73;207.27;;;13.10;99.90;;;;;;5057211;28;20166;-82
2021/10/08 09:58:24;;;;;;;254.70;237.93;;;13.30;99.90;;;;;;5040335;28;20451;-82
2021/10/08 10:00:57;;;;;;;261.10;241.07;;;13.50;99.90;;;;;;5058138;28;20217;-82
2021/10/08 10:03:24;;;;;;;290.13;272.07;;;13.60;99.90;;;;;;5055655;28;20472;-82
2021/10/08 10:05:50;;;;;;;360.00;339.10;;;13.80;99.90;;;;;;5056111;28;20480;-81
2021/10/08 10:08:16;;;;;;;351.77;330.77;;;14.00;99.90;;;;;;5056185;28;20426;-82
2021/10/08 10:10:42;;;;;;;264.37;246.60;;;14.20;99.90;;;;;;5056403;28;20403;-82
2021/10/08 10:13:11;;;;;;;128.47;115.47;;;14.40;99.90;;;;;;5039367;28;20172;-82
2021/10/08 10:15:42;;;;;;;88.10;44.63;;;14.50;99.90;;;;;;5057169;28;20572;-81
2021/10/08 10:18:13;;;;;;;89.83;54.07;;;14.70;99.90;;;;;;5038282;28;20453;-83
2021/10/08 10:20:50;;;;;;;94.57;59.70;;;14.80;99.90;;;;;;5056309;28;21029;-82
2021/10/08 10:23:18;;;;;;;91.70;48.13;;;15.00;99.90;;;;;;5059150;28;20378;-82
2021/10/08 10:25:46;;;;;;;128.80;116.23;;;15.10;99.90;;;;;;5040737;28;20488;-82
2021/10/08 10:28:12;;;;;;;147.03;134.00;;;15.30;99.90;;;;;;5057399;28;20419;-82
2021/10/08 10:30:40;;;;;;;153.13;139.73;;;15.30;99.90;;;;;;5055989;28;20412;-82
2021/10/08 10:33:08;;;;;;;158.30;144.60;;;15.40;99.90;;;;;;5056069;28;20463;-81
2021/10/08 10:35:47;;;;;;;159.60;145.80;;;15.60;99.90;;;;;;5057408;28;20411;-82
2021/10/08 10:38:23;;;;;;;118.23;106.07;;;15.70;99.90;;;;;;5055744;28;20446;-82
2021/10/08 10:41:03;;;;;;;97.00;77.10;;;15.90;99.90;;;;;;5055782;28;20414;-82
2021/10/08 10:43:32;;;;;;;106.20;94.80;;;15.90;99.90;;;;;;5056061;28;20385;-81
2021/10/08 10:46:27;;;;;;;85.53;49.70;;;16.10;99.90;;;;;;5055833;28;20405;-82
2021/10/08 10:51:59;;;;;;;80.53;35.33;;;16.00;99.90;;;;;;5055815;28;20391;-82
2021/10/08 10:54:48;;;;;;;78.30;32.30;;;16.00;99.90;;;;;;5057691;28;20762;-82
2021/10/08 10:57:20;;;;;;;81.47;30.03;;;16.30;99.90;;;;;;5037837;28;20769;-81
2021/10/08 10:59:47;;;;;;;77.27;28.60;;;16.40;99.90;;;;;;5055427;28;20503;-81
2021/10/08 11:02:14;;;;;;;85.20;42.67;;;16.40;99.90;;;;;;5059024;28;20413;-82
2021/10/08 11:04:54;;;;;;;85.53;43.13;;;16.50;99.90;;;;;;5056033;28;20427;-82
2021/10/08 11:07:23;;;;;;;87.53;56.70;;;16.70;99.90;;;;;;5059765;28;20432;-82
2021/10/08 11:10:04;;;;;;;88.97;58.60;;;16.80;99.90;;;;;;5055996;28;20407;-82
2021/10/08 11:12:42;;;;;;;87.87;50.47;;;17.00;99.90;;;;;;5055378;28;20407;-82
2021/10/08 11:15:20;;;;;;;89.07;56.83;;;16.90;99.90;;;;;;5056029;28;20441;-82
2021/10/08 11:18:00;;;;;;;87.37;49.60;;;16.70;99.90;;;;;;5055289;28;20434;-82
2021/10/08 11:20:28;;;;;;;84.33;41.50;;;16.40;99.90;;;;;;5055684;28;20396;-82
2021/10/08 11:23:04;;;;;;;92.53;64.90;;;16.60;99.90;;;;;;5037600;28;20449;-82
2021/10/08 11:25:33;;;;;;;89.93;65.60;;;16.80;99.90;;;;;;5059977;28;20387;-82
2021/10/08 11:27:59;;;;;;;94.43;81.33;;;16.70;99.30;;;;;;5063158;28;20519;-82
2021/10/08 11:30:26;;;;;;;95.40;75.70;;;16.90;99.90;;;;;;5063427;28;20395;-82
2021/10/08 11:32:54;;;;;;;93.17;77.87;;;17.10;99.80;;;;;;5062375;28;20494;-82
2021/10/08 11:35:34;;;;;;;93.37;71.30;;;17.10;99.90;;;;;;5063272;28;20407;-82
2021/10/08 11:38:02;;;;;;;95.87;81.83;;;17.20;99.90;;;;;;5047489;28;20491;-82
2021/10/08 11:40:44;;;;;;;85.10;42.37;;;17.60;99.90;;;;;;5063748;28;20403;-82
2021/10/08 11:43:27;;;;;;;75.70;27.47;;;17.80;95.60;;;;;;5046787;28;20546;-82
2021/10/08 11:46:11;;;;;;;71.97;18.30;;;17.80;97.20;;;;;;5063786;28;20853;-82
2021/10/08 11:48:42;;;;;;;73.67;22.07;;;17.90;86.80;;;;;;5064370;28;20427;-82
2021/10/08 11:51:07;;;;;;;74.57;23.97;;;17.60;91.50;;;;;;5063179;28;20386;-82
2021/10/08 11:53:44;;;;;;;75.50;25.90;;;17.70;93.00;;;;;;5063421;28;20423;-82
2021/10/08 11:56:33;;;;;;;83.00;45.13;;;17.60;89.90;;;;;;5059410;28;20506;-82
2021/10/08 11:58:58;;;;;;;84.80;49.43;;;17.50;88.70;;;;;;5058936;28;20509;-82
2021/10/08 12:01:26;;;;;;;76.37;23.63;;;17.90;85.00;;;;;;5058884;28;20403;-82
2021/10/08 12:03:53;;;;;;;76.93;27.03;;;17.70;90.50;;;;;;5058523;28;20230;-81
2021/10/08 12:06:26;;;;;;;77.10;30.83;;;17.80;93.50;;;;;;5059230;28;20790;-81
2021/10/08 12:08:52;;;;;;;78.90;28.50;;;18.10;94.70;;;;;;5040913;28;20435;-81
2021/10/08 12:11:20;;;;;;;91.17;59.67;;;18.40;90.30;;;;;;5040742;28;20510;-81
2021/10/08 12:13:50;;;;;;;85.17;52.73;;;18.10;84.40;;;;;;5058560;28;20411;-81
2021/10/08 12:16:26;;;;;;;82.93;47.10;;;18.10;88.20;;;;;;5060522;28;20376;-81
2021/10/08 12:18:54;;;;;;;78.33;36.17;;;18.10;87.10;;;;;;5056917;28;20446;-81
2021/10/08 12:21:24;;;;;;;86.90;60.50;;;17.90;91.30;;;;;;5057046;28;20399;-81
2021/10/08 12:24:12;;;;;;;77.80;32.33;;;18.20;92.00;;;;;;5056391;28;20779;-81
2021/10/08 12:26:59;;;;;;;88.53;56.07;;;18.40;92.00;;;;;;5056841;28;20383;-81
2021/10/08 12:29:25;;;;;;;89.43;64.07;;;18.60;87.60;;;;;;5056885;28;20407;-81
2021/10/08 12:31:59;;;;;;;78.67;33.50;;;18.40;83.40;;;;;;5056745;28;20434;-81